sensor_id;sensor_type;location;lat;lon;timestamp;P1;durP1;ratioP1;P2;durP2;ratioP2
41887;SDS011;63122;52.424;13.458;2023-02-28T00:03:07;7.67;;;4.40;;
41887;SDS011;63122;52.424;13.458;2023-02-28T00:05:03;10.53;;;3.90;;
41887;SDS011;63122;52.424;13.458;2023-02-28T00:06:59;10.03;;;4.40;;
41887;SDS011;63122;52.424;13.458;2023-02-28T00:08:54;9.00;;;5.13;;
41887;SDS011;63122;52.424;13.458;2023-02-28T00:10:50;10.13;;;5.47;;
41887;SDS011;63122;52.424;13.458;2023-02-28T00:12:45;13.53;;;5.40;;
41887;SDS011;63122;52.424;13.458;2023-02-28T00:14:40;13.43;;;5.60;;
41887;SDS011;63122;52.424;13.458;2023-02-28T00:16:35;9.13;;;4.53;;
41887;SDS011;63122;52.424;13.458;2023-02-28T00:18:33;12.10;;;4.97;;
41887;SDS011;63122;52.424;13.458;2023-02-28T00:20:28;10.07;;;4.83;;
41887;SDS011;63122;52.424;13.458;2023-02-28T00:22:23;10.23;;;4.57;;
41887;SDS011;63122;52.424;13.458;2023-02-28T00:24:18;9.87;;;4.57;;
41887;SDS011;63122;52.424;13.458;2023-02-28T00:26:14;9.50;;;4.50;;
41887;SDS011;63122;52.424;13.458;2023-02-28T00:28:12;9.83;;;5.00;;
41887;SDS011;63122;52.424;13.458;2023-02-28T00:30:08;11.00;;;4.70;;
41887;SDS011;63122;52.424;13.458;2023-02-28T00:32:06;11.07;;;4.63;;
41887;SDS011;63122;52.424;13.458;2023-02-28T00:34:04;10.03;;;5.20;;
41887;SDS011;63122;52.424;13.458;2023-02-28T00:36:03;10.87;;;5.40;;
41887;SDS011;63122;52.424;13.458;2023-02-28T00:37:59;8.57;;;4.60;;
41887;SDS011;63122;52.424;13.458;2023-02-28T00:39:54;10.30;;;4.50;;
41887;SDS011;63122;52.424;13.458;2023-02-28T00:41:49;10.53;;;4.47;;
41887;SDS011;63122;52.424;13.458;2023-02-28T00:43:44;9.13;;;4.33;;
41887;SDS011;63122;52.424;13.458;2023-02-28T00:45:40;7.97;;;4.07;;
41887;SDS011;63122;52.424;13.458;2023-02-28T00:47:35;6.97;;;4.10;;
41887;SDS011;63122;52.424;13.458;2023-02-28T00:49:33;10.33;;;4.00;;
41887;SDS011;63122;52.424;13.458;2023-02-28T00:51:29;7.40;;;3.80;;
41887;SDS011;63122;52.424;13.458;2023-02-28T00:53:24;7.57;;;4.00;;
41887;SDS011;63122;52.424;13.458;2023-02-28T00:55:19;8.13;;;3.87;;
41887;SDS011;63122;52.424;13.458;2023-02-28T00:57:14;9.60;;;3.70;;
41887;SDS011;63122;52.424;13.458;2023-02-28T00:59:10;8.63;;;4.03;;
41887;SDS011;63122;52.424;13.458;2023-02-28T01:01:05;8.47;;;3.87;;
41887;SDS011;63122;52.424;13.458;2023-02-28T01:03:01;9.03;;;4.57;;
41887;SDS011;63122;52.424;13.458;2023-02-28T01:05:00;7.27;;;3.97;;
41887;SDS011;63122;52.424;13.458;2023-02-28T01:06:55;7.63;;;3.97;;
41887;SDS011;63122;52.424;13.458;2023-02-28T01:08:51;9.33;;;4.20;;
41887;SDS011;63122;52.424;13.458;2023-02-28T01:10:48;10.20;;;4.30;;
41887;SDS011;63122;52.424;13.458;2023-02-28T01:12:45;7.47;;;4.30;;
41887;SDS011;63122;52.424;13.458;2023-02-28T01:14:40;9.33;;;4.63;;
41887;SDS011;63122;52.424;13.458;2023-02-28T01:16:37;9.10;;;4.33;;
41887;SDS011;63122;52.424;13.458;2023-02-28T01:18:33;7.13;;;4.03;;
41887;SDS011;63122;52.424;13.458;2023-02-28T01:20:33;8.43;;;4.40;;
41887;SDS011;63122;52.424;13.458;2023-02-28T01:22:34;8.63;;;3.87;;
41887;SDS011;63122;52.424;13.458;2023-02-28T01:24:30;9.90;;;4.10;;
41887;SDS011;63122;52.424;13.458;2023-02-28T01:26:31;8.17;;;3.93;;
41887;SDS011;63122;52.424;13.458;2023-02-28T01:28:26;6.83;;;3.93;;
41887;SDS011;63122;52.424;13.458;2023-02-28T01:30:21;10.83;;;4.43;;
41887;SDS011;63122;52.424;13.458;2023-02-28T01:32:17;6.77;;;3.53;;
41887;SDS011;63122;52.424;13.458;2023-02-28T01:34:12;10.80;;;4.33;;
41887;SDS011;63122;52.424;13.458;2023-02-28T01:36:10;8.37;;;4.03;;
41887;SDS011;63122;52.424;13.458;2023-02-28T01:38:06;6.90;;;3.70;;
41887;SDS011;63122;52.424;13.458;2023-02-28T01:40:13;8.33;;;3.87;;
41887;SDS011;63122;52.424;13.458;2023-02-28T01:42:09;9.13;;;4.03;;
41887;SDS011;63122;52.424;13.458;2023-02-28T01:44:05;10.50;;;4.30;;
41887;SDS011;63122;52.424;13.458;2023-02-28T01:46:01;7.23;;;3.63;;
41887;SDS011;63122;52.424;13.458;2023-02-28T01:47:57;8.60;;;3.80;;
41887;SDS011;63122;52.424;13.458;2023-02-28T01:49:56;6.10;;;3.53;;
41887;SDS011;63122;52.424;13.458;2023-02-28T01:51:55;6.20;;;3.60;;
41887;SDS011;63122;52.424;13.458;2023-02-28T01:53:52;7.47;;;4.23;;
41887;SDS011;63122;52.424;13.458;2023-02-28T01:55:51;7.77;;;4.20;;
41887;SDS011;63122;52.424;13.458;2023-02-28T01:57:49;7.43;;;4.00;;
41887;SDS011;63122;52.424;13.458;2023-02-28T01:59:48;9.00;;;4.20;;
41887;SDS011;63122;52.424;13.458;2023-02-28T02:01:46;8.07;;;3.80;;
41887;SDS011;63122;52.424;13.458;2023-02-28T02:03:42;8.97;;;4.63;;
41887;SDS011;63122;52.424;13.458;2023-02-28T02:05:37;9.43;;;3.97;;
41887;SDS011;63122;52.424;13.458;2023-02-28T02:07:42;8.73;;;3.90;;
41887;SDS011;63122;52.424;13.458;2023-02-28T02:09:39;8.77;;;4.30;;
41887;SDS011;63122;52.424;13.458;2023-02-28T02:11:35;11.57;;;4.87;;
41887;SDS011;63122;52.424;13.458;2023-02-28T02:13:44;10.40;;;4.37;;
41887;SDS011;63122;52.424;13.458;2023-02-28T02:15:56;11.37;;;4.30;;
41887;SDS011;63122;52.424;13.458;2023-02-28T02:17:57;9.33;;;4.40;;
41887;SDS011;63122;52.424;13.458;2023-02-28T02:22:26;10.73;;;4.17;;
41887;SDS011;63122;52.424;13.458;2023-02-28T02:24:52;7.93;;;3.73;;
41887;SDS011;63122;52.424;13.458;2023-02-28T02:27:08;8.37;;;4.13;;
41887;SDS011;63122;52.424;13.458;2023-02-28T02:31:55;9.43;;;4.67;;
41887;SDS011;63122;52.424;13.458;2023-02-28T02:36:37;7.80;;;4.30;;
41887;SDS011;63122;52.424;13.458;2023-02-28T02:38:43;9.67;;;4.87;;
41887;SDS011;63122;52.424;13.458;2023-02-28T02:40:46;9.10;;;4.53;;
41887;SDS011;63122;52.424;13.458;2023-02-28T02:42:47;9.80;;;4.27;;
41887;SDS011;63122;52.424;13.458;2023-02-28T02:44:49;8.43;;;4.70;;
41887;SDS011;63122;52.424;13.458;2023-02-28T02:46:52;19.13;;;3.90;;
41887;SDS011;63122;52.424;13.458;2023-02-28T02:48:52;11.47;;;4.33;;
41887;SDS011;63122;52.424;13.458;2023-02-28T02:50:52;9.33;;;4.80;;
41887;SDS011;63122;52.424;13.458;2023-02-28T02:52:54;10.07;;;4.30;;
41887;SDS011;63122;52.424;13.458;2023-02-28T02:54:53;8.63;;;4.50;;
41887;SDS011;63122;52.424;13.458;2023-02-28T02:56:50;9.73;;;4.90;;
41887;SDS011;63122;52.424;13.458;2023-02-28T02:58:47;8.77;;;4.73;;
41887;SDS011;63122;52.424;13.458;2023-02-28T03:00:46;8.23;;;4.17;;
41887;SDS011;63122;52.424;13.458;2023-02-28T03:02:46;8.20;;;4.30;;
41887;SDS011;63122;52.424;13.458;2023-02-28T03:04:45;8.03;;;4.63;;
41887;SDS011;63122;52.424;13.458;2023-02-28T03:06:45;10.10;;;4.87;;
41887;SDS011;63122;52.424;13.458;2023-02-28T03:08:43;9.70;;;4.33;;
41887;SDS011;63122;52.424;13.458;2023-02-28T03:10:39;7.77;;;4.40;;
41887;SDS011;63122;52.424;13.458;2023-02-28T03:12:38;9.57;;;4.77;;
41887;SDS011;63122;52.424;13.458;2023-02-28T03:14:43;9.47;;;4.70;;
41887;SDS011;63122;52.424;13.458;2023-02-28T03:19:28;10.87;;;5.17;;
41887;SDS011;63122;52.424;13.458;2023-02-28T03:21:56;7.77;;;4.43;;
41887;SDS011;63122;52.424;13.458;2023-02-28T03:24:13;9.27;;;5.50;;
41887;SDS011;63122;52.424;13.458;2023-02-28T03:26:17;10.30;;;4.97;;
41887;SDS011;63122;52.424;13.458;2023-02-28T03:28:17;8.80;;;5.07;;
41887;SDS011;63122;52.424;13.458;2023-02-28T03:30:22;11.80;;;5.37;;
41887;SDS011;63122;52.424;13.458;2023-02-28T03:32:26;9.37;;;5.37;;
41887;SDS011;63122;52.424;13.458;2023-02-28T03:34:25;9.77;;;5.30;;
41887;SDS011;63122;52.424;13.458;2023-02-28T03:36:25;10.37;;;5.07;;
41887;SDS011;63122;52.424;13.458;2023-02-28T03:38:26;11.23;;;5.60;;
41887;SDS011;63122;52.424;13.458;2023-02-28T03:40:27;11.73;;;5.30;;
41887;SDS011;63122;52.424;13.458;2023-02-28T03:42:27;11.17;;;4.97;;
41887;SDS011;63122;52.424;13.458;2023-02-28T03:44:27;10.57;;;5.60;;
41887;SDS011;63122;52.424;13.458;2023-02-28T03:46:27;11.97;;;5.63;;
41887;SDS011;63122;52.424;13.458;2023-02-28T03:48:42;10.83;;;5.20;;
41887;SDS011;63122;52.424;13.458;2023-02-28T03:50:42;9.63;;;5.60;;
41887;SDS011;63122;52.424;13.458;2023-02-28T03:52:42;9.53;;;5.30;;
41887;SDS011;63122;52.424;13.458;2023-02-28T03:54:44;10.70;;;5.87;;
41887;SDS011;63122;52.424;13.458;2023-02-28T03:56:47;9.50;;;5.20;;
41887;SDS011;63122;52.424;13.458;2023-02-28T03:58:49;12.97;;;5.10;;
41887;SDS011;63122;52.424;13.458;2023-02-28T04:00:49;12.17;;;6.23;;
41887;SDS011;63122;52.424;13.458;2023-02-28T04:02:50;11.40;;;5.40;;
41887;SDS011;63122;52.424;13.458;2023-02-28T04:04:45;17.00;;;5.53;;
41887;SDS011;63122;52.424;13.458;2023-02-28T04:06:41;12.83;;;5.73;;
41887;SDS011;63122;52.424;13.458;2023-02-28T04:08:37;10.17;;;5.20;;
41887;SDS011;63122;52.424;13.458;2023-02-28T04:10:32;10.27;;;5.17;;
41887;SDS011;63122;52.424;13.458;2023-02-28T04:12:30;8.80;;;4.90;;
41887;SDS011;63122;52.424;13.458;2023-02-28T04:14:25;11.97;;;5.43;;
41887;SDS011;63122;52.424;13.458;2023-02-28T04:16:21;10.07;;;4.80;;
41887;SDS011;63122;52.424;13.458;2023-02-28T04:18:26;10.73;;;5.70;;
41887;SDS011;63122;52.424;13.458;2023-02-28T04:20:21;11.47;;;5.63;;
41887;SDS011;63122;52.424;13.458;2023-02-28T04:22:16;10.53;;;5.57;;
41887;SDS011;63122;52.424;13.458;2023-02-28T04:24:12;12.67;;;5.97;;
41887;SDS011;63122;52.424;13.458;2023-02-28T04:26:08;8.20;;;4.93;;
41887;SDS011;63122;52.424;13.458;2023-02-28T04:28:06;11.40;;;5.50;;
41887;SDS011;63122;52.424;13.458;2023-02-28T04:30:02;10.77;;;5.13;;
41887;SDS011;63122;52.424;13.458;2023-02-28T04:31:58;11.27;;;6.10;;
41887;SDS011;63122;52.424;13.458;2023-02-28T04:33:54;11.03;;;5.63;;
41887;SDS011;63122;52.424;13.458;2023-02-28T04:35:57;12.37;;;5.67;;
41887;SDS011;63122;52.424;13.458;2023-02-28T04:37:54;10.43;;;5.60;;
41887;SDS011;63122;52.424;13.458;2023-02-28T04:39:49;9.93;;;5.40;;
41887;SDS011;63122;52.424;13.458;2023-02-28T04:41:44;10.07;;;5.30;;
41887;SDS011;63122;52.424;13.458;2023-02-28T04:43:42;10.53;;;5.00;;
41887;SDS011;63122;52.424;13.458;2023-02-28T04:45:38;11.73;;;6.00;;
41887;SDS011;63122;52.424;13.458;2023-02-28T04:47:33;9.10;;;5.40;;
41887;SDS011;63122;52.424;13.458;2023-02-28T04:49:28;9.73;;;5.27;;
41887;SDS011;63122;52.424;13.458;2023-02-28T04:51:23;11.37;;;5.30;;
41887;SDS011;63122;52.424;13.458;2023-02-28T04:53:19;10.83;;;5.73;;
41887;SDS011;63122;52.424;13.458;2023-02-28T04:55:14;10.77;;;5.13;;
41887;SDS011;63122;52.424;13.458;2023-02-28T04:57:09;13.57;;;5.43;;
41887;SDS011;63122;52.424;13.458;2023-02-28T04:59:07;12.50;;;5.40;;
41887;SDS011;63122;52.424;13.458;2023-02-28T05:01:03;10.40;;;5.47;;
41887;SDS011;63122;52.424;13.458;2023-02-28T05:03:04;10.77;;;5.17;;
41887;SDS011;63122;52.424;13.458;2023-02-28T05:04:59;10.50;;;5.57;;
41887;SDS011;63122;52.424;13.458;2023-02-28T05:06:54;10.93;;;5.97;;
41887;SDS011;63122;52.424;13.458;2023-02-28T05:08:50;12.53;;;6.10;;
41887;SDS011;63122;52.424;13.458;2023-02-28T05:10:45;9.73;;;5.33;;
41887;SDS011;63122;52.424;13.458;2023-02-28T05:12:40;9.60;;;5.27;;
41887;SDS011;63122;52.424;13.458;2023-02-28T05:14:38;9.13;;;5.27;;
41887;SDS011;63122;52.424;13.458;2023-02-28T05:16:32;12.27;;;5.93;;
41887;SDS011;63122;52.424;13.458;2023-02-28T05:18:28;9.90;;;5.13;;
41887;SDS011;63122;52.424;13.458;2023-02-28T05:20:23;12.10;;;5.60;;
41887;SDS011;63122;52.424;13.458;2023-02-28T05:22:18;9.77;;;5.67;;
41887;SDS011;63122;52.424;13.458;2023-02-28T05:24:13;8.93;;;5.20;;
41887;SDS011;63122;52.424;13.458;2023-02-28T05:26:14;11.87;;;6.00;;
41887;SDS011;63122;52.424;13.458;2023-02-28T05:28:09;8.83;;;5.10;;
41887;SDS011;63122;52.424;13.458;2023-02-28T05:30:08;10.93;;;5.47;;
41887;SDS011;63122;52.424;13.458;2023-02-28T05:32:04;13.60;;;5.93;;
41887;SDS011;63122;52.424;13.458;2023-02-28T05:34:00;14.13;;;5.70;;
41887;SDS011;63122;52.424;13.458;2023-02-28T05:35:55;9.67;;;5.60;;
41887;SDS011;63122;52.424;13.458;2023-02-28T05:37:51;14.13;;;5.53;;
41887;SDS011;63122;52.424;13.458;2023-02-28T05:39:46;29.60;;;15.60;;
41887;SDS011;63122;52.424;13.458;2023-02-28T05:41:41;21.53;;;10.03;;
41887;SDS011;63122;52.424;13.458;2023-02-28T05:43:37;13.63;;;7.03;;
41887;SDS011;63122;52.424;13.458;2023-02-28T05:45:35;15.50;;;6.40;;
41887;SDS011;63122;52.424;13.458;2023-02-28T05:47:30;12.53;;;5.93;;
41887;SDS011;63122;52.424;13.458;2023-02-28T05:49:25;13.77;;;5.37;;
41887;SDS011;63122;52.424;13.458;2023-02-28T05:51:20;9.43;;;5.20;;
41887;SDS011;63122;52.424;13.458;2023-02-28T05:53:15;13.17;;;5.53;;
41887;SDS011;63122;52.424;13.458;2023-02-28T05:55:11;10.67;;;5.63;;
41887;SDS011;63122;52.424;13.458;2023-02-28T05:57:06;10.20;;;5.43;;
41887;SDS011;63122;52.424;13.458;2023-02-28T05:59:15;14.40;;;6.00;;
41887;SDS011;63122;52.424;13.458;2023-02-28T06:01:22;10.10;;;5.47;;
41887;SDS011;63122;52.424;13.458;2023-02-28T06:03:25;14.07;;;5.67;;
41887;SDS011;63122;52.424;13.458;2023-02-28T06:05:21;12.20;;;5.87;;
41887;SDS011;63122;52.424;13.458;2023-02-28T06:07:17;11.07;;;5.77;;
41887;SDS011;63122;52.424;13.458;2023-02-28T06:09:14;7.27;;;5.20;;
41887;SDS011;63122;52.424;13.458;2023-02-28T06:11:09;14.80;;;6.23;;
41887;SDS011;63122;52.424;13.458;2023-02-28T06:13:04;10.17;;;5.83;;
41887;SDS011;63122;52.424;13.458;2023-02-28T06:15:00;13.53;;;5.67;;
41887;SDS011;63122;52.424;13.458;2023-02-28T06:16:58;9.80;;;5.90;;
41887;SDS011;63122;52.424;13.458;2023-02-28T06:18:54;13.30;;;6.87;;
41887;SDS011;63122;52.424;13.458;2023-02-28T06:20:52;12.23;;;6.20;;
41887;SDS011;63122;52.424;13.458;2023-02-28T06:22:47;15.87;;;8.70;;
41887;SDS011;63122;52.424;13.458;2023-02-28T06:24:43;30.57;;;15.33;;
41887;SDS011;63122;52.424;13.458;2023-02-28T06:26:38;20.23;;;10.17;;
41887;SDS011;63122;52.424;13.458;2023-02-28T06:28:33;16.27;;;7.00;;
41887;SDS011;63122;52.424;13.458;2023-02-28T06:30:28;11.87;;;6.17;;
41887;SDS011;63122;52.424;13.458;2023-02-28T06:32:28;11.23;;;6.40;;
41887;SDS011;63122;52.424;13.458;2023-02-28T06:34:23;12.30;;;6.07;;
41887;SDS011;63122;52.424;13.458;2023-02-28T06:36:18;14.03;;;6.23;;
41887;SDS011;63122;52.424;13.458;2023-02-28T06:38:13;13.60;;;6.40;;
41887;SDS011;63122;52.424;13.458;2023-02-28T06:40:10;12.47;;;6.20;;
41887;SDS011;63122;52.424;13.458;2023-02-28T06:42:06;11.23;;;6.63;;
41887;SDS011;63122;52.424;13.458;2023-02-28T06:44:01;12.17;;;6.27;;
41887;SDS011;63122;52.424;13.458;2023-02-28T06:45:58;13.03;;;7.17;;
41887;SDS011;63122;52.424;13.458;2023-02-28T06:47:57;11.60;;;6.67;;
41887;SDS011;63122;52.424;13.458;2023-02-28T06:49:52;13.13;;;6.07;;
41887;SDS011;63122;52.424;13.458;2023-02-28T06:51:47;14.73;;;6.50;;
41887;SDS011;63122;52.424;13.458;2023-02-28T06:53:43;14.83;;;6.57;;
41887;SDS011;63122;52.424;13.458;2023-02-28T06:55:38;12.07;;;6.27;;
41887;SDS011;63122;52.424;13.458;2023-02-28T06:57:34;16.77;;;6.70;;
41887;SDS011;63122;52.424;13.458;2023-02-28T06:59:29;13.93;;;6.03;;
41887;SDS011;63122;52.424;13.458;2023-02-28T07:01:25;12.40;;;6.40;;
41887;SDS011;63122;52.424;13.458;2023-02-28T07:03:23;10.00;;;5.73;;
41887;SDS011;63122;52.424;13.458;2023-02-28T07:05:18;12.17;;;6.83;;
41887;SDS011;63122;52.424;13.458;2023-02-28T07:07:13;15.97;;;6.57;;
41887;SDS011;63122;52.424;13.458;2023-02-28T07:09:08;16.10;;;7.10;;
41887;SDS011;63122;52.424;13.458;2023-02-28T07:11:04;11.80;;;6.27;;
41887;SDS011;63122;52.424;13.458;2023-02-28T07:12:59;13.03;;;7.33;;
41887;SDS011;63122;52.424;13.458;2023-02-28T07:14:55;13.07;;;6.87;;
41887;SDS011;63122;52.424;13.458;2023-02-28T07:16:50;18.50;;;8.03;;
41887;SDS011;63122;52.424;13.458;2023-02-28T07:18:47;17.70;;;7.47;;
41887;SDS011;63122;52.424;13.458;2023-02-28T07:20:43;11.03;;;6.47;;
41887;SDS011;63122;52.424;13.458;2023-02-28T07:22:38;16.73;;;6.77;;
41887;SDS011;63122;52.424;13.458;2023-02-28T07:24:33;16.67;;;7.00;;
41887;SDS011;63122;52.424;13.458;2023-02-28T07:26:29;13.90;;;6.83;;
41887;SDS011;63122;52.424;13.458;2023-02-28T07:28:26;14.60;;;6.80;;
41887;SDS011;63122;52.424;13.458;2023-02-28T07:30:21;13.97;;;7.17;;
41887;SDS011;63122;52.424;13.458;2023-02-28T07:32:16;16.93;;;6.67;;
41887;SDS011;63122;52.424;13.458;2023-02-28T07:34:14;12.40;;;6.37;;
41887;SDS011;63122;52.424;13.458;2023-02-28T07:36:11;14.20;;;7.63;;
41887;SDS011;63122;52.424;13.458;2023-02-28T07:38:11;12.43;;;6.87;;
41887;SDS011;63122;52.424;13.458;2023-02-28T07:40:10;12.07;;;6.47;;
41887;SDS011;63122;52.424;13.458;2023-02-28T07:42:11;14.43;;;6.47;;
41887;SDS011;63122;52.424;13.458;2023-02-28T07:44:11;13.07;;;6.40;;
41887;SDS011;63122;52.424;13.458;2023-02-28T07:46:08;11.17;;;5.77;;
41887;SDS011;63122;52.424;13.458;2023-02-28T07:48:06;12.73;;;6.40;;
41887;SDS011;63122;52.424;13.458;2023-02-28T07:50:05;12.40;;;5.93;;
41887;SDS011;63122;52.424;13.458;2023-02-28T07:52:02;12.37;;;6.13;;
41887;SDS011;63122;52.424;13.458;2023-02-28T07:53:57;11.33;;;5.83;;
41887;SDS011;63122;52.424;13.458;2023-02-28T07:55:56;12.30;;;5.73;;
41887;SDS011;63122;52.424;13.458;2023-02-28T07:57:53;8.87;;;5.27;;
41887;SDS011;63122;52.424;13.458;2023-02-28T07:59:48;11.23;;;5.33;;
41887;SDS011;63122;52.424;13.458;2023-02-28T08:01:44;12.37;;;5.20;;
41887;SDS011;63122;52.424;13.458;2023-02-28T08:03:41;10.40;;;5.33;;
41887;SDS011;63122;52.424;13.458;2023-02-28T08:05:45;10.07;;;4.70;;
41887;SDS011;63122;52.424;13.458;2023-02-28T08:07:41;15.30;;;4.80;;
41887;SDS011;63122;52.424;13.458;2023-02-28T08:09:38;14.27;;;5.80;;
41887;SDS011;63122;52.424;13.458;2023-02-28T08:11:33;10.53;;;4.93;;
41887;SDS011;63122;52.424;13.458;2023-02-28T08:13:29;11.87;;;5.13;;
41887;SDS011;63122;52.424;13.458;2023-02-28T08:15:27;10.50;;;4.87;;
41887;SDS011;63122;52.424;13.458;2023-02-28T08:17:22;14.93;;;5.40;;
41887;SDS011;63122;52.424;13.458;2023-02-28T08:19:17;11.70;;;5.27;;
41887;SDS011;63122;52.424;13.458;2023-02-28T08:21:17;11.50;;;4.83;;
41887;SDS011;63122;52.424;13.458;2023-02-28T08:23:13;8.70;;;4.13;;
41887;SDS011;63122;52.424;13.458;2023-02-28T08:25:08;12.53;;;4.07;;
41887;SDS011;63122;52.424;13.458;2023-02-28T08:27:04;8.20;;;4.80;;
41887;SDS011;63122;52.424;13.458;2023-02-28T08:28:59;9.63;;;4.80;;
41887;SDS011;63122;52.424;13.458;2023-02-28T08:30:54;10.63;;;4.70;;
41887;SDS011;63122;52.424;13.458;2023-02-28T08:32:49;16.13;;;5.20;;
41887;SDS011;63122;52.424;13.458;2023-02-28T08:34:44;11.37;;;5.00;;
41887;SDS011;63122;52.424;13.458;2023-02-28T08:36:42;9.53;;;4.30;;
41887;SDS011;63122;52.424;13.458;2023-02-28T08:38:38;10.23;;;4.57;;
41887;SDS011;63122;52.424;13.458;2023-02-28T08:40:36;15.80;;;5.10;;
41887;SDS011;63122;52.424;13.458;2023-02-28T08:42:32;15.63;;;6.07;;
41887;SDS011;63122;52.424;13.458;2023-02-28T08:44:27;13.90;;;4.47;;
41887;SDS011;63122;52.424;13.458;2023-02-28T08:46:23;11.57;;;4.57;;
41887;SDS011;63122;52.424;13.458;2023-02-28T08:48:20;16.67;;;4.20;;
41887;SDS011;63122;52.424;13.458;2023-02-28T08:50:18;11.17;;;4.27;;
41887;SDS011;63122;52.424;13.458;2023-02-28T08:52:16;11.67;;;4.07;;
41887;SDS011;63122;52.424;13.458;2023-02-28T08:54:11;11.87;;;4.23;;
41887;SDS011;63122;52.424;13.458;2023-02-28T08:56:08;8.43;;;3.87;;
41887;SDS011;63122;52.424;13.458;2023-02-28T08:58:05;6.00;;;3.33;;
41887;SDS011;63122;52.424;13.458;2023-02-28T09:00:08;8.03;;;3.67;;
41887;SDS011;63122;52.424;13.458;2023-02-28T09:02:05;12.90;;;4.43;;
41887;SDS011;63122;52.424;13.458;2023-02-28T09:04:00;7.07;;;3.27;;
41887;SDS011;63122;52.424;13.458;2023-02-28T09:05:56;5.70;;;3.40;;
41887;SDS011;63122;52.424;13.458;2023-02-28T09:07:55;7.87;;;3.30;;
41887;SDS011;63122;52.424;13.458;2023-02-28T09:09:50;6.30;;;3.50;;
41887;SDS011;63122;52.424;13.458;2023-02-28T09:11:49;13.10;;;3.83;;
41887;SDS011;63122;52.424;13.458;2023-02-28T09:13:45;5.53;;;3.33;;
41887;SDS011;63122;52.424;13.458;2023-02-28T09:15:40;6.40;;;3.37;;
41887;SDS011;63122;52.424;13.458;2023-02-28T09:17:35;6.07;;;3.13;;
41887;SDS011;63122;52.424;13.458;2023-02-28T09:19:31;10.53;;;3.97;;
41887;SDS011;63122;52.424;13.458;2023-02-28T09:21:26;10.00;;;3.30;;
41887;SDS011;63122;52.424;13.458;2023-02-28T09:23:24;8.23;;;3.33;;
41887;SDS011;63122;52.424;13.458;2023-02-28T09:25:19;6.03;;;3.00;;
41887;SDS011;63122;52.424;13.458;2023-02-28T09:27:14;5.73;;;2.90;;
41887;SDS011;63122;52.424;13.458;2023-02-28T09:29:11;5.53;;;2.60;;
41887;SDS011;63122;52.424;13.458;2023-02-28T09:31:10;6.67;;;2.53;;
41887;SDS011;63122;52.424;13.458;2023-02-28T09:33:07;5.43;;;2.67;;
41887;SDS011;63122;52.424;13.458;2023-02-28T09:35:02;6.23;;;2.40;;
41887;SDS011;63122;52.424;13.458;2023-02-28T09:36:58;5.87;;;2.47;;
41887;SDS011;63122;52.424;13.458;2023-02-28T09:38:59;9.27;;;2.43;;
41887;SDS011;63122;52.424;13.458;2023-02-28T09:40:55;5.50;;;2.10;;
41887;SDS011;63122;52.424;13.458;2023-02-28T09:42:52;4.40;;;2.20;;
41887;SDS011;63122;52.424;13.458;2023-02-28T09:44:51;11.73;;;2.40;;
41887;SDS011;63122;52.424;13.458;2023-02-28T09:46:47;4.67;;;2.33;;
41887;SDS011;63122;52.424;13.458;2023-02-28T09:48:56;4.83;;;2.70;;
41887;SDS011;63122;52.424;13.458;2023-02-28T09:50:55;5.80;;;2.50;;
41887;SDS011;63122;52.424;13.458;2023-02-28T09:52:56;6.80;;;2.40;;
41887;SDS011;63122;52.424;13.458;2023-02-28T09:54:55;8.00;;;2.33;;
41887;SDS011;63122;52.424;13.458;2023-02-28T09:56:56;2.33;;;1.70;;
41887;SDS011;63122;52.424;13.458;2023-02-28T09:58:56;2.70;;;1.60;;
41887;SDS011;63122;52.424;13.458;2023-02-28T10:00:57;5.07;;;1.90;;
41887;SDS011;63122;52.424;13.458;2023-02-28T10:03:03;3.30;;;1.63;;
41887;SDS011;63122;52.424;13.458;2023-02-28T10:05:07;3.40;;;2.00;;
41887;SDS011;63122;52.424;13.458;2023-02-28T10:07:10;3.33;;;1.60;;
41887;SDS011;63122;52.424;13.458;2023-02-28T10:09:17;4.50;;;1.80;;
41887;SDS011;63122;52.424;13.458;2023-02-28T10:11:18;3.10;;;1.90;;
41887;SDS011;63122;52.424;13.458;2023-02-28T10:13:17;3.93;;;1.70;;
41887;SDS011;63122;52.424;13.458;2023-02-28T10:15:17;3.20;;;1.97;;
41887;SDS011;63122;52.424;13.458;2023-02-28T10:17:16;2.93;;;1.80;;
41887;SDS011;63122;52.424;13.458;2023-02-28T10:19:16;4.17;;;2.20;;
41887;SDS011;63122;52.424;13.458;2023-02-28T10:21:16;4.57;;;2.10;;
41887;SDS011;63122;52.424;13.458;2023-02-28T10:23:17;2.80;;;1.73;;
41887;SDS011;63122;52.424;13.458;2023-02-28T10:25:17;7.10;;;2.00;;
41887;SDS011;63122;52.424;13.458;2023-02-28T10:27:17;4.90;;;2.10;;
41887;SDS011;63122;52.424;13.458;2023-02-28T10:29:14;3.40;;;2.03;;
41887;SDS011;63122;52.424;13.458;2023-02-28T10:31:18;7.50;;;1.90;;
41887;SDS011;63122;52.424;13.458;2023-02-28T10:33:19;10.43;;;2.17;;
41887;SDS011;63122;52.424;13.458;2023-02-28T10:35:19;4.70;;;2.20;;
41887;SDS011;63122;52.424;13.458;2023-02-28T10:37:15;3.50;;;2.13;;
41887;SDS011;63122;52.424;13.458;2023-02-28T10:41:31;4.63;;;2.33;;
41887;SDS011;63122;52.424;13.458;2023-02-28T10:43:30;4.27;;;2.30;;
41887;SDS011;63122;52.424;13.458;2023-02-28T10:45:26;5.00;;;2.53;;
41887;SDS011;63122;52.424;13.458;2023-02-28T10:47:25;4.77;;;2.70;;
41887;SDS011;63122;52.424;13.458;2023-02-28T10:49:21;6.07;;;2.30;;
41887;SDS011;63122;52.424;13.458;2023-02-28T10:51:20;5.60;;;2.30;;
41887;SDS011;63122;52.424;13.458;2023-02-28T10:53:25;8.70;;;2.40;;
41887;SDS011;63122;52.424;13.458;2023-02-28T10:55:45;7.53;;;2.60;;
41887;SDS011;63122;52.424;13.458;2023-02-28T10:57:50;5.00;;;2.60;;
41887;SDS011;63122;52.424;13.458;2023-02-28T10:59:50;3.83;;;2.73;;
41887;SDS011;63122;52.424;13.458;2023-02-28T11:01:47;5.40;;;2.67;;
41887;SDS011;63122;52.424;13.458;2023-02-28T11:03:44;5.63;;;2.93;;
41887;SDS011;63122;52.424;13.458;2023-02-28T11:05:40;8.37;;;2.90;;
41887;SDS011;63122;52.424;13.458;2023-02-28T11:07:41;7.90;;;3.03;;
41887;SDS011;63122;52.424;13.458;2023-02-28T11:09:45;4.50;;;2.73;;
41887;SDS011;63122;52.424;13.458;2023-02-28T11:11:44;4.47;;;2.50;;
41887;SDS011;63122;52.424;13.458;2023-02-28T11:13:41;5.50;;;2.90;;
41887;SDS011;63122;52.424;13.458;2023-02-28T11:15:39;12.30;;;3.27;;
41887;SDS011;63122;52.424;13.458;2023-02-28T11:17:34;4.77;;;2.73;;
41887;SDS011;63122;52.424;13.458;2023-02-28T11:19:31;5.93;;;2.70;;
41887;SDS011;63122;52.424;13.458;2023-02-28T11:21:33;7.37;;;2.60;;
41887;SDS011;63122;52.424;13.458;2023-02-28T11:23:33;4.50;;;2.50;;
41887;SDS011;63122;52.424;13.458;2023-02-28T11:25:35;4.07;;;2.40;;
41887;SDS011;63122;52.424;13.458;2023-02-28T11:27:46;4.43;;;2.47;;
41887;SDS011;63122;52.424;13.458;2023-02-28T11:29:46;4.83;;;2.73;;
41887;SDS011;63122;52.424;13.458;2023-02-28T11:31:44;10.40;;;2.70;;
41887;SDS011;63122;52.424;13.458;2023-02-28T11:33:55;5.17;;;2.50;;
41887;SDS011;63122;52.424;13.458;2023-02-28T11:35:52;4.07;;;2.40;;
41887;SDS011;63122;52.424;13.458;2023-02-28T11:37:50;5.70;;;2.90;;
41887;SDS011;63122;52.424;13.458;2023-02-28T11:39:46;6.68;;;3.40;;
41887;SDS011;63122;52.424;13.458;2023-02-28T11:41:47;5.77;;;2.90;;
41887;SDS011;63122;52.424;13.458;2023-02-28T11:44:03;4.53;;;2.50;;
41887;SDS011;63122;52.424;13.458;2023-02-28T11:46:13;5.28;;;2.65;;
41887;SDS011;63122;52.424;13.458;2023-02-28T11:48:20;4.93;;;2.70;;
41887;SDS011;63122;52.424;13.458;2023-02-28T11:50:22;7.15;;;2.70;;
41887;SDS011;63122;52.424;13.458;2023-02-28T11:52:35;11.77;;;2.63;;